Time;durP1;ratioP1;P1;durP2;ratioP2;P2;SDS_P1;SDS_P2;PMS_P1;PMS_P2;Temp;Humidity;BMP_temperature;BMP_pressure;BME280_temperature;BME280_humidity;BME280_pressure;Samples;Min_cycle;Max_cycle;Signal;HPM_P1;HPM_P2
2022/05/07 00:02:09;;;;;;;4.25;3.10;;;;;;;13.68;49.65;95345.81;5116411;28;20188;-65
2022/05/07 00:04:36;;;;;;;3.55;3.25;;;;;;;13.65;49.62;95352.09;5116300;28;20194;-65
2022/05/07 00:07:03;;;;;;;3.38;3.08;;;;;;;13.64;49.25;95353.25;5115255;28;20208;-66
2022/05/07 00:09:31;;;;;;;4.32;3.50;;;;;;;13.66;49.31;95352.91;5116249;28;20280;-66
2022/05/07 00:11:59;;;;;;;3.95;3.13;;;;;;;13.62;49.13;95354.81;5115154;28;20196;-66
2022/05/07 00:14:26;;;;;;;3.85;3.42;;;;;;;13.60;49.03;95360.69;5115177;28;20198;-66
2022/05/07 00:19:37;;;;;;;3.50;3.20;;;;;;;13.52;48.71;95353.41;5115960;28;20172;-66
2022/05/07 00:22:04;;;;;;;4.65;3.53;;;;;;;13.49;48.61;95352.16;5115942;28;20188;-66
2022/05/07 00:24:31;;;;;;;3.33;3.00;;;;;;;13.48;48.47;95349.78;5114998;28;20203;-65
2022/05/07 00:26:59;;;;;;;2.88;2.67;;;;;;;13.47;48.14;95345.38;5115726;28;20214;-65
2022/05/07 00:29:26;;;;;;;3.35;3.10;;;;;;;13.44;48.23;95349.69;5114836;28;20199;-66
2022/05/07 00:31:53;;;;;;;2.85;2.65;;;;;;;13.42;47.93;95346.47;5115124;28;20199;-66
2022/05/07 00:34:21;;;;;;;3.50;3.20;;;;;;;13.36;47.76;95345.19;5115455;28;20180;-65
2022/05/07 00:36:48;;;;;;;3.60;3.10;;;;;;;13.35;47.87;95345.53;5114938;28;20202;-65
2022/05/07 00:39:15;;;;;;;4.10;2.97;;;;;;;13.36;48.18;95345.19;5115604;28;20258;-66
2022/05/07 00:41:43;;;;;;;4.45;3.05;;;;;;;13.33;48.20;95340.38;5115171;28;20191;-66
2022/05/07 00:44:12;;;;;;;3.65;2.95;;;;;;;13.30;47.90;95343.84;5115057;28;20207;-66
2022/05/07 00:46:39;;;;;;;3.17;2.90;;;;;;;13.28;47.46;95337.06;5098105;28;20230;-66
2022/05/07 00:49:07;;;;;;;3.35;3.05;;;;;;;13.27;47.83;95336.28;5115634;28;20216;-66
2022/05/07 00:51:33;;;;;;;3.25;2.95;;;;;;;13.25;46.67;95330.28;5114650;28;20209;-66
2022/05/07 00:54:00;;;;;;;3.47;3.05;;;;;;;13.25;47.20;95333.03;5115277;28;20203;-66
2022/05/07 00:56:26;;;;;;;4.45;2.80;;;;;;;13.24;47.30;95337.00;5114634;28;20184;-66
2022/05/07 00:58:53;;;;;;;3.90;3.17;;;;;;;13.24;47.22;95335.03;5115501;28;20184;-66
2022/05/07 01:01:22;;;;;;;3.80;2.90;;;;;;;13.20;46.89;95325.81;5114324;28;20191;-66
2022/05/07 01:03:50;;;;;;;4.13;2.75;;;;;;;13.17;46.49;95334.03;5115746;28;20195;-67
2022/05/07 01:06:16;;;;;;;3.40;3.00;;;;;;;13.16;46.20;95327.69;5115447;28;20223;-67
2022/05/07 01:08:43;;;;;;;3.45;3.13;;;;;;;13.13;45.64;95322.09;5115260;28;20191;-67
2022/05/07 01:11:10;;;;;;;4.78;2.95;;;;;;;13.01;46.00;95325.78;5115224;28;20633;-67
2022/05/07 01:13:38;;;;;;;3.13;2.85;;;;;;;12.94;45.77;95325.63;5114285;28;20207;-66
2022/05/07 01:16:05;;;;;;;3.47;2.90;;;;;;;12.91;45.75;95329.13;5114484;28;20187;-66
2022/05/07 01:18:33;;;;;;;3.05;2.80;;;;;;;12.80;45.81;95325.31;5114453;28;20187;-66
2022/05/07 01:21:07;;;;;;;3.33;3.00;;;;;;;12.78;46.28;95331.19;5115411;28;20230;-66
2022/05/07 01:23:34;;;;;;;3.58;2.90;;;;;;;12.82;46.02;95332.09;5115384;28;20188;-66
2022/05/07 01:26:01;;;;;;;3.53;3.03;;;;;;;12.80;45.96;95328.09;5115263;28;20215;-66
2022/05/07 01:28:29;;;;;;;3.30;3.00;;;;;;;12.68;45.63;95334.53;5115249;28;20195;-66
2022/05/07 01:30:56;;;;;;;4.38;3.00;;;;;;;12.64;45.85;95337.22;5115033;28;20202;-66
2022/05/07 01:33:22;;;;;;;3.35;2.80;;;;;;;12.56;45.78;95340.16;5115377;28;20176;-66
2022/05/07 01:35:49;;;;;;;4.43;3.08;;;;;;;12.64;46.40;95341.97;5114082;28;20198;-66
2022/05/07 01:38:18;;;;;;;3.03;2.72;;;;;;;12.68;46.30;95334.53;5114810;28;20530;-66
2022/05/07 01:40:44;;;;;;;3.20;2.90;;;;;;;12.59;46.22;95333.91;5114640;28;20195;-66
2022/05/07 01:43:12;;;;;;;3.72;2.97;;;;;;;12.62;46.43;95336.78;5117641;28;20277;-66
2022/05/07 01:45:38;;;;;;;3.90;2.60;;;;;;;12.65;46.48;95341.59;5118699;28;20311;-66
2022/05/07 01:48:11;;;;;;;3.03;2.80;;;;;;;12.67;46.76;95333.75;5118622;28;20606;-66
2022/05/07 01:50:39;;;;;;;3.47;3.05;;;;;;;12.68;46.70;95345.63;5117904;28;20228;-66
2022/05/07 01:53:07;;;;;;;3.08;2.67;;;;;;;12.67;46.62;95344.00;5117968;28;20191;-66
2022/05/07 01:55:36;;;;;;;3.20;2.90;;;;;;;12.63;46.75;95332.84;5118055;28;20202;-66
2022/05/07 01:58:02;;;;;;;4.05;3.00;;;;;;;12.61;46.63;95329.63;5117776;28;20247;-66
2022/05/07 02:00:30;;;;;;;3.13;2.80;;;;;;;12.57;46.76;95325.19;5117731;28;20260;-66
2022/05/07 02:02:58;;;;;;;4.15;3.40;;;;;;;12.55;46.83;95339.38;5117361;28;20199;-66
2022/05/07 02:05:26;;;;;;;6.00;2.80;;;;;;;12.51;46.86;95336.53;5117280;28;20191;-66
2022/05/07 02:07:53;;;;;;;3.67;3.20;;;;;;;12.52;47.01;95337.31;5118511;28;20245;-66
2022/05/07 02:10:20;;;;;;;2.83;2.60;;;;;;;12.50;46.59;95339.66;5118167;28;20522;-66
2022/05/07 02:12:49;;;;;;;3.50;3.08;;;;;;;12.51;46.86;95341.25;5118190;28;20184;-66
2022/05/07 02:15:17;;;;;;;4.35;2.80;;;;;;;12.51;47.22;95344.03;5118606;28;20199;-66
2022/05/07 02:17:43;;;;;;;3.83;2.92;;;;;;;12.50;47.42;95342.41;5118496;28;20273;-66
2022/05/07 02:20:11;;;;;;;3.35;2.80;;;;;;;12.46;47.15;95353.41;5117318;28;20202;-65
2022/05/07 02:22:38;;;;;;;3.45;2.55;;;;;;;12.43;47.67;95348.59;5117955;28;20591;-66
2022/05/07 02:25:06;;;;;;;4.97;2.80;;;;;;;12.38;47.75;95343.34;5118360;28;20199;-66
2022/05/07 02:27:33;;;;;;;3.60;2.95;;;;;;;12.42;47.35;95341.44;5116897;28;20211;-66
2022/05/07 02:30:01;;;;;;;3.22;2.65;;;;;;;12.45;47.28;95345.44;5117897;28;20176;-66
2022/05/07 02:32:28;;;;;;;4.70;3.55;;;;;;;12.40;47.59;95348.50;5117146;28;20196;-66
2022/05/07 02:34:55;;;;;;;3.05;2.58;;;;;;;12.38;47.54;95345.28;5117821;28;20592;-66
2022/05/07 02:37:22;;;;;;;5.47;2.83;;;;;;;12.34;47.47;95342.41;5117176;28;20188;-67
2022/05/07 02:39:50;;;;;;;3.75;2.80;;;;;;;12.31;47.43;95343.16;5117625;27;20242;-66
2022/05/07 02:42:36;;;;;;;3.33;3.03;;;;;;;12.22;47.54;95348.03;5116543;28;20200;-66
2022/05/07 02:45:09;;;;;;;2.90;2.60;;;;;;;12.22;48.02;95348.84;5118061;28;20195;-66
2022/05/07 02:47:37;;;;;;;4.75;2.80;;;;;;;12.25;47.87;95358.41;5117360;28;20626;-66
2022/05/07 02:50:05;;;;;;;2.97;2.63;;;;;;;12.23;48.80;95349.63;5117758;28;20214;-66
2022/05/07 02:52:33;;;;;;;3.20;2.60;;;;;;;12.21;47.95;95360.28;5117416;28;20300;-66
2022/05/07 02:55:01;;;;;;;3.50;2.95;;;;;;;12.17;47.93;95353.84;5116710;28;20255;-66
2022/05/07 02:57:28;;;;;;;4.28;2.92;;;;;;;12.17;49.66;95359.38;5116821;28;20196;-66
2022/05/07 02:59:55;;;;;;;4.07;2.97;;;;;;;12.07;48.22;95357.94;5117591;28;20331;-66
2022/05/07 03:02:23;;;;;;;3.20;2.90;;;;;;;12.09;49.58;95357.56;5117493;28;20183;-66
2022/05/07 03:04:50;;;;;;;3.88;3.05;;;;;;;12.07;50.17;95362.66;5117456;28;20204;-67
2022/05/07 03:07:17;;;;;;;2.97;2.72;;;;;;;12.06;50.72;95359.09;5117378;28;20215;-66
2022/05/07 03:09:44;;;;;;;3.42;3.13;;;;;;;12.02;50.89;95361.78;5117187;28;20247;-66
2022/05/07 03:12:12;;;;;;;3.35;3.05;;;;;;;11.96;51.36;95359.63;5117001;28;20180;-66
2022/05/07 03:14:39;;;;;;;4.20;2.90;;;;;;;11.91;51.56;95363.47;5116462;28;20200;-66
2022/05/07 03:17:05;;;;;;;4.75;3.70;;;;;;;11.89;51.65;95364.97;5117529;28;20176;-66
2022/05/07 03:19:34;;;;;;;4.47;3.55;;;;;;;11.89;51.82;95368.53;5116327;28;20200;-66
2022/05/07 03:22:00;;;;;;;4.50;4.07;;;;;;;11.85;51.53;95370.41;5117116;28;20199;-68
2022/05/07 03:24:27;;;;;;;4.03;3.47;;;;;;;11.74;51.95;95369.28;5117081;28;20184;-67
2022/05/07 03:26:54;;;;;;;4.88;3.95;;;;;;;11.64;52.79;95373.34;5116659;28;20222;-66
2022/05/07 03:29:21;;;;;;;4.82;3.80;;;;;;;11.59;53.66;95368.06;5116185;28;20195;-66
2022/05/07 03:31:49;;;;;;;5.25;4.03;;;;;;;11.52;54.45;95370.63;5119066;28;20191;-66
2022/05/07 03:34:16;;;;;;;5.20;4.70;;;;;;;11.53;54.42;95367.50;5115986;28;20223;-66
2022/05/07 03:36:44;;;;;;;5.82;4.00;;;;;;;11.49;54.98;95371.34;5116577;28;20184;-66
2022/05/07 03:39:12;;;;;;;4.57;4.18;;;;;;;11.44;54.91;95368.84;5116586;28;20239;-66
2022/05/07 03:41:39;;;;;;;5.82;4.53;;;;;;;11.38;54.74;95367.47;5116706;28;20195;-66
2022/05/07 03:44:06;;;;;;;5.03;4.53;;;;;;;11.28;54.88;95366.00;5116384;28;20531;-66
2022/05/07 03:46:33;;;;;;;4.72;4.07;;;;;;;11.22;55.08;95370.97;5115635;28;20539;-66
2022/05/07 03:49:00;;;;;;;5.82;4.18;;;;;;;11.22;54.90;95379.25;5116306;28;20202;-66
2022/05/07 03:51:26;;;;;;;4.88;4.38;;;;;;;11.25;55.45;95381.28;5115628;28;20192;-66
2022/05/07 03:53:54;;;;;;;7.15;4.72;;;;;;;11.19;55.89;95376.41;5116495;28;20194;-66
2022/05/07 03:56:21;;;;;;;4.47;4.07;;;;;;;11.19;55.76;95379.16;5116100;28;20477;-66
2022/05/07 03:58:48;;;;;;;5.10;4.22;;;;;;;11.18;56.11;95385.81;5115119;28;20227;-66
2022/05/07 04:01:15;;;;;;;6.80;4.45;;;;;;;11.14;55.41;95387.66;5116710;28;20210;-66
2022/05/07 04:03:41;;;;;;;5.05;4.20;;;;;;;11.06;56.23;95395.72;5116383;28;20188;-66
2022/05/07 04:06:11;;;;;;;5.68;4.50;;;;;;;11.05;56.25;95396.09;5115387;28;20190;-66
2022/05/07 04:08:37;;;;;;;5.88;5.07;;;;;;;11.04;56.48;95397.25;5116296;28;20245;-66
2022/05/07 04:11:06;;;;;;;6.93;5.03;;;;;;;11.03;56.39;95399.19;5115313;28;20192;-68
2022/05/07 04:13:33;;;;;;;5.85;4.60;;;;;;;10.98;55.92;95404.16;5116232;28;20184;-68
2022/05/07 04:15:59;;;;;;;8.10;5.90;;;;;;;10.99;56.34;95408.50;5115017;28;20184;-68
2022/05/07 04:18:26;;;;;;;4.75;4.28;;;;;;;10.99;57.33;95400.22;5116065;28;20313;-68
2022/05/07 04:20:55;;;;;;;5.72;4.68;;;;;;;10.93;57.27;95398.84;5115239;28;20227;-68
2022/05/07 04:23:21;;;;;;;6.40;4.40;;;;;;;10.94;56.90;95403.22;5115280;28;20204;-68
2022/05/07 04:25:48;;;;;;;6.97;4.70;;;;;;;10.97;57.78;95397.03;5116338;28;20176;-69
2022/05/07 04:28:17;;;;;;;4.93;4.50;;;;;;;10.99;57.73;95401.03;5116130;28;20200;-67
2022/05/07 04:30:43;;;;;;;8.93;4.60;;;;;;;10.99;58.34;95400.22;5115726;28;20214;-66
2022/05/07 04:33:10;;;;;;;8.52;4.72;;;;;;;11.02;58.55;95400.34;5116410;28;20600;-65
2022/05/07 04:35:38;;;;;;;6.35;4.40;;;;;;;11.05;58.74;95404.38;5115062;28;20199;-65
2022/05/07 04:38:05;;;;;;;4.90;4.45;;;;;;;11.06;58.08;95404.00;5116055;28;20202;-65
2022/05/07 04:40:32;;;;;;;5.22;4.30;;;;;;;11.09;58.24;95395.03;5115528;28;20559;-65
2022/05/07 04:42:59;;;;;;;5.53;4.90;;;;;;;11.14;58.52;95395.94;5115720;28;20511;-66
2022/05/07 04:45:29;;;;;;;6.25;5.18;;;;;;;11.16;58.83;95390.88;5115653;28;20267;-65
2022/05/07 04:47:56;;;;;;;8.73;4.97;;;;;;;11.18;59.96;95400.41;5115870;28;20211;-65
2022/05/07 04:50:23;;;;;;;10.40;5.30;;;;;;;11.23;59.01;95400.19;5115101;28;20202;-65
2022/05/07 04:52:50;;;;;;;6.45;5.13;;;;;;;11.31;59.00;95395.69;5115698;28;20191;-65
2022/05/07 04:55:17;;;;;;;5.53;5.03;;;;;;;11.31;58.36;95396.47;5115885;28;20188;-65
2022/05/07 04:57:44;;;;;;;5.53;4.95;;;;;;;11.33;58.37;95390.63;5114773;28;20191;-65
2022/05/07 05:00:12;;;;;;;5.20;4.68;;;;;;;11.35;59.13;95398.53;5115063;28;20203;-65
2022/05/07 05:02:40;;;;;;;5.22;4.72;;;;;;;11.39;59.25;95402.22;5115082;28;20207;-65
2022/05/07 05:05:08;;;;;;;5.60;4.72;;;;;;;11.42;59.11;95398.75;5114914;28;20204;-65
2022/05/07 05:07:35;;;;;;;11.55;5.25;;;;;;;11.39;59.20;95402.22;5115698;28;20213;-65
2022/05/07 05:10:02;;;;;;;6.55;4.70;;;;;;;11.40;59.27;95401.03;5115648;28;20690;-65
2022/05/07 05:12:29;;;;;;;5.13;4.38;;;;;;;11.40;59.74;95393.59;5114854;28;20200;-66
2022/05/07 05:15:08;;;;;;;5.57;4.95;;;;;;;11.45;58.91;95398.84;5115287;28;20280;-65
2022/05/07 05:17:37;;;;;;;6.65;4.50;;;;;;;11.52;58.18;95398.25;5119369;28;20206;-65
2022/05/07 05:20:07;;;;;;;5.80;4.47;;;;;;;11.55;57.81;95390.06;5118891;28;20187;-65
2022/05/07 05:22:33;;;;;;;4.95;4.50;;;;;;;11.59;56.44;95394.91;5118779;28;20196;-65
2022/05/07 05:25:00;;;;;;;5.95;4.10;;;;;;;11.69;56.24;95394.38;5119607;28;20187;-66
2022/05/07 05:27:27;;;;;;;4.78;4.32;;;;;;;11.77;54.69;95394.25;5119807;28;20222;-65
2022/05/07 05:29:54;;;;;;;4.32;3.90;;;;;;;11.80;53.81;95396.31;5119519;28;20204;-65
2022/05/07 05:32:21;;;;;;;5.70;3.88;;;;;;;11.81;53.65;95399.88;5119459;28;20599;-65
2022/05/07 05:34:48;;;;;;;6.35;4.45;;;;;;;11.89;53.93;95401.69;5118794;28;20191;-65
2022/05/07 05:37:17;;;;;;;6.53;4.18;;;;;;;11.97;53.98;95400.72;5118235;28;20187;-65
2022/05/07 05:39:44;;;;;;;5.00;4.30;;;;;;;11.99;54.08;95406.72;5117827;28;20227;-65
2022/05/07 05:42:10;;;;;;;4.80;4.30;;;;;;;12.05;53.98;95407.25;5117758;28;20252;-65
2022/05/07 05:44:38;;;;;;;4.75;4.35;;;;;;;12.03;54.04;95409.56;5118103;28;20311;-65
2022/05/07 05:47:07;;;;;;;5.97;4.70;;;;;;;12.03;53.57;95404.84;5119379;28;20200;-65
2022/05/07 05:49:35;;;;;;;4.47;4.10;;;;;;;12.09;53.28;95402.63;5119214;28;20184;-65
2022/05/07 05:52:05;;;;;;;5.18;3.95;;;;;;;12.01;53.38;95409.91;5118234;28;20196;-66
2022/05/07 05:54:34;;;;;;;5.57;3.72;;;;;;;12.02;53.58;95410.75;5117854;28;20198;-66
2022/05/07 05:57:02;;;;;;;4.85;4.10;;;;;;;12.07;53.77;95398.63;5118639;28;20183;-66
2022/05/07 05:59:29;;;;;;;7.53;4.20;;;;;;;12.10;53.65;95403.44;5118120;28;20268;-66
2022/05/07 06:01:57;;;;;;;8.80;4.50;;;;;;;12.10;53.30;95407.00;5117819;28;20203;-66
2022/05/07 06:04:24;;;;;;;5.25;4.72;;;;;;;12.18;53.64;95406.03;5118437;28;20532;-66
2022/05/07 06:06:51;;;;;;;8.05;5.07;;;;;;;12.25;54.05;95403.44;5118132;28;20192;-66
2022/05/07 06:09:18;;;;;;;4.00;3.60;;;;;;;12.33;53.19;95406.41;5117908;28;20210;-66
2022/05/07 06:11:46;;;;;;;4.30;3.90;;;;;;;12.41;53.56;95403.44;5119018;28;20188;-66
2022/05/07 06:14:15;;;;;;;7.63;4.63;;;;;;;12.46;53.26;95411.50;5118946;28;20195;-66
2022/05/07 06:16:41;;;;;;;5.88;4.65;;;;;;;12.48;52.89;95413.88;5118265;28;20195;-66
2022/05/07 06:19:10;;;;;;;6.47;4.18;;;;;;;12.47;53.94;95413.09;5117794;28;20200;-66
2022/05/07 06:21:37;;;;;;;5.97;4.15;;;;;;;12.52;53.93;95412.00;5119573;28;20176;-66
2022/05/07 06:29:38;;;;;;;5.00;4.30;;;;;;;12.71;53.46;95406.59;5116925;28;20199;-65
2022/05/07 06:32:06;;;;;;;5.07;4.40;;;;;;;12.72;53.40;95405.41;5117417;28;20192;-65
2022/05/07 06:34:32;;;;;;;4.43;3.90;;;;;;;12.75;52.68;95401.13;5117249;28;20199;-66
2022/05/07 06:36:59;;;;;;;6.22;4.13;;;;;;;12.79;53.22;95404.78;5117735;28;20196;-67
2022/05/07 06:39:26;;;;;;;4.82;4.30;;;;;;;12.83;53.23;95400.13;5117590;28;20235;-67
2022/05/07 06:41:54;;;;;;;5.75;4.28;;;;;;;12.85;53.00;95400.56;5117963;28;20184;-67
2022/05/07 06:44:21;;;;;;;4.82;4.43;;;;;;;12.90;53.24;95399.50;5117665;28;20199;-68
2022/05/07 06:46:49;;;;;;;4.70;4.30;;;;;;;12.94;53.37;95398.41;5117649;28;20203;-67
2022/05/07 06:49:17;;;;;;;7.05;4.55;;;;;;;13.00;52.54;95399.75;5118348;28;20577;-67
2022/05/07 06:51:44;;;;;;;6.35;4.35;;;;;;;13.05;52.42;95409.75;5118759;28;20226;-67
2022/05/07 06:54:11;;;;;;;5.07;4.53;;;;;;;13.08;52.96;95400.72;5118438;28;20191;-67
2022/05/07 06:56:38;;;;;;;5.75;4.55;;;;;;;13.15;53.01;95391.78;5117951;28;20227;-67
2022/05/07 06:59:07;;;;;;;5.35;4.57;;;;;;;13.19;53.22;95398.19;5101030;28;20196;-67
2022/05/07 07:01:34;;;;;;;5.30;4.72;;;;;;;13.21;53.34;95395.84;5118675;28;20511;-67
2022/05/07 07:04:01;;;;;;;5.30;4.05;;;;;;;13.26;52.58;95394.81;5118590;28;20235;-67
2022/05/07 07:06:28;;;;;;;5.53;4.68;;;;;;;13.31;53.87;95386.22;5118002;28;20187;-67
2022/05/07 07:08:56;;;;;;;5.22;4.60;;;;;;;13.36;52.24;95389.50;5117980;28;20199;-67
2022/05/07 07:11:24;;;;;;;5.85;4.68;;;;;;;13.38;51.88;95381.63;5117051;28;20619;-67
2022/05/07 07:13:52;;;;;;;4.75;4.15;;;;;;;13.42;52.21;95371.41;5117960;28;20176;-67
2022/05/07 07:16:21;;;;;;;5.13;4.50;;;;;;;13.46;52.44;95377.03;5117806;28;20179;-67
2022/05/07 07:18:47;;;;;;;5.68;4.30;;;;;;;13.52;52.50;95374.78;5117497;28;20536;-68
2022/05/07 07:21:14;;;;;;;5.25;4.25;;;;;;;13.62;53.32;95374.19;5117521;28;20199;-70
2022/05/07 07:23:41;;;;;;;4.45;4.05;;;;;;;13.70;53.52;95379.50;5116506;28;20196;-70
2022/05/07 07:26:08;;;;;;;5.40;4.40;;;;;;;13.76;53.10;95377.22;5117328;28;20202;-67
2022/05/07 07:28:35;;;;;;;4.97;4.47;;;;;;;13.82;52.02;95366.66;5116233;28;20226;-67
2022/05/07 07:31:01;;;;;;;5.55;4.80;;;;;;;13.85;51.89;95363.97;5116628;28;20202;-66
2022/05/07 07:33:31;;;;;;;5.43;4.93;;;;;;;13.93;51.55;95364.91;5117243;28;20188;-65
2022/05/07 07:35:57;;;;;;;8.80;5.10;;;;;;;14.06;53.04;95360.00;5116502;28;20534;-65
2022/05/07 07:38:25;;;;;;;5.90;4.75;;;;;;;14.11;51.73;95362.47;5115773;28;20245;-70
2022/05/07 07:40:53;;;;;;;5.97;4.30;;;;;;;14.20;52.60;95360.25;5115419;28;20195;-66
2022/05/07 07:43:20;;;;;;;6.65;4.82;;;;;;;14.25;51.59;95368.25;5116151;28;20204;-65
2022/05/07 07:48:34;;;;;;;5.25;4.75;;;;;;;14.33;52.02;95361.66;5116545;28;20210;-65
2022/05/07 07:51:01;;;;;;;6.22;4.40;;;;;;;14.44;51.51;95365.41;5116388;28;20195;-65
2022/05/07 07:53:28;;;;;;;4.70;4.30;;;;;;;14.50;50.71;95365.94;5117096;28;20176;-65
2022/05/07 07:55:55;;;;;;;4.18;3.78;;;;;;;14.52;50.68;95363.59;5117116;28;20194;-65
2022/05/07 07:58:22;;;;;;;4.82;4.18;;;;;;;14.55;51.77;95360.06;5116565;28;20195;-65
2022/05/07 08:00:49;;;;;;;5.93;4.15;;;;;;;14.58;51.31;95361.31;5115959;28;20208;-65
2022/05/07 08:03:16;;;;;;;4.60;4.20;;;;;;;14.56;50.58;95358.94;5115336;28;20214;-66
2022/05/07 08:05:46;;;;;;;6.00;4.80;;;;;;;14.54;50.27;95363.25;5116159;28;20192;-66
2022/05/07 08:13:43;;;;;;;5.25;4.75;;;;;;;14.59;49.66;95360.94;5116138;28;20207;-66
2022/05/07 08:16:11;;;;;;;5.85;4.47;;;;;;;14.64;50.32;95368.97;5116215;28;20188;-66
2022/05/07 08:18:39;;;;;;;4.70;4.30;;;;;;;14.71;50.01;95364.72;5115460;28;20203;-66
2022/05/07 08:21:08;;;;;;;8.13;4.80;;;;;;;14.80;51.19;95362.47;5116146;28;20187;-66
2022/05/07 08:23:35;;;;;;;4.85;4.45;;;;;;;14.91;50.76;95360.66;5115979;28;20184;-66
2022/05/07 08:26:04;;;;;;;6.35;4.53;;;;;;;15.06;51.66;95370.78;5116188;28;20190;-65
2022/05/07 08:28:30;;;;;;;6.57;4.57;;;;;;;15.18;49.74;95350.34;5116020;28;20207;-65
2022/05/07 08:30:58;;;;;;;5.50;4.60;;;;;;;15.29;50.54;95359.63;5115931;28;20203;-66
2022/05/07 08:33:24;;;;;;;4.65;4.18;;;;;;;15.44;50.34;95357.84;5116021;28;20197;-66
2022/05/07 08:35:51;;;;;;;4.28;3.88;;;;;;;15.57;50.28;95355.59;5116173;28;20195;-66
2022/05/07 08:38:20;;;;;;;6.03;4.30;;;;;;;15.63;47.33;95362.44;5115672;28;20219;-65
2022/05/07 08:40:46;;;;;;;4.97;4.47;;;;;;;15.63;48.80;95360.44;5115072;28;20284;-65
2022/05/07 08:43:15;;;;;;;5.13;4.32;;;;;;;15.70;49.29;95354.22;5115677;28;20194;-65
2022/05/07 08:45:43;;;;;;;4.13;3.80;;;;;;;15.87;49.78;95353.63;5114862;28;20231;-65
2022/05/07 08:48:10;;;;;;;4.47;3.90;;;;;;;16.03;47.77;95361.72;5115650;28;20208;-66
2022/05/07 08:50:39;;;;;;;4.38;3.97;;;;;;;16.12;46.92;95356.69;5114501;28;20635;-66
2022/05/07 08:53:06;;;;;;;4.10;3.70;;;;;;;16.16;46.99;95347.53;5115460;28;20190;-66
2022/05/07 08:55:36;;;;;;;5.05;3.88;;;;;;;16.20;46.25;95342.84;5115049;28;20295;-65
2022/05/07 08:58:03;;;;;;;4.05;3.70;;;;;;;16.11;45.28;95348.69;5115885;28;20184;-65
2022/05/07 09:00:31;;;;;;;4.80;3.50;;;;;;;16.12;46.12;95350.28;5114805;28;20214;-65
2022/05/07 09:02:59;;;;;;;4.10;3.70;;;;;;;16.09;45.27;95349.09;5115289;28;20196;-66
2022/05/07 09:05:33;;;;;;;4.43;3.88;;;;;;;16.07;45.68;95353.44;5115024;28;20291;-66
2022/05/07 09:08:00;;;;;;;4.00;3.70;;;;;;;16.00;45.72;95347.78;5115644;28;20207;-65
2022/05/07 09:10:28;;;;;;;3.78;3.30;;;;;;;15.97;45.61;95352.13;5114700;28;20203;-65
2022/05/07 09:13:01;;;;;;;4.50;3.85;;;;;;;15.97;46.57;95342.97;5115732;28;20196;-65
2022/05/07 09:15:28;;;;;;;3.67;3.38;;;;;;;15.98;46.26;95334.28;5114998;28;20227;-65
2022/05/07 09:17:55;;;;;;;4.47;3.53;;;;;;;16.02;46.10;95337.09;5114887;28;20195;-65
2022/05/07 09:20:23;;;;;;;5.20;3.72;;;;;;;16.02;45.03;95342.66;5114837;28;20224;-65
2022/05/07 09:22:51;;;;;;;5.53;3.60;;;;;;;15.91;44.82;95338.97;5115431;28;20191;-65
2022/05/07 09:25:22;;;;;;;4.40;3.45;;;;;;;15.99;46.20;95335.06;5115592;28;20180;-65
2022/05/07 09:27:51;;;;;;;4.65;3.50;;;;;;;16.22;46.28;95334.88;5115495;28;20191;-65
2022/05/07 09:30:30;;;;;;;4.78;3.78;;;;;;;16.40;44.75;95327.50;5114731;28;20202;-65
2022/05/07 09:32:57;;;;;;;4.35;3.40;;;;;;;16.44;42.75;95324.75;5115127;28;20583;-66
2022/05/07 09:38:11;;;;;;;5.45;4.50;;;;;;;16.98;43.61;95315.66;5114959;28;20267;-66
2022/05/07 09:40:39;;;;;;;4.35;3.70;;;;;;;17.14;43.55;95315.34;5114899;28;20200;-66
2022/05/07 09:43:07;;;;;;;4.03;3.60;;;;;;;17.27;42.49;95308.25;5114881;28;20203;-66
2022/05/07 09:45:36;;;;;;;3.55;3.17;;;;;;;17.31;41.69;95306.28;5115090;28;20598;-66
2022/05/07 09:48:04;;;;;;;5.28;4.18;;;;;;;17.42;41.26;95297.16;5114353;28;20200;-66
2022/05/07 09:50:45;;;;;;;4.45;3.97;;;;;;;17.69;41.96;95303.25;5114413;28;20187;-66
2022/05/07 09:58:38;;;;;;;3.85;3.55;;;;;;;18.22;41.78;95297.03;5115222;28;20198;-66
2022/05/07 10:01:49;;;;;;;5.35;4.20;;;;;;;18.39;41.24;95290.66;5114231;28;20200;-66
2022/05/07 10:04:48;;;;;;;6.15;3.78;;;;;;;18.37;40.79;95289.47;5022578;28;20209;-66
2022/05/07 10:07:41;;;;;;;6.05;4.32;;;;;;;18.35;39.80;95289.88;5041733;28;20649;-65
2022/05/07 10:10:19;;;;;;;5.40;3.78;;;;;;;18.47;39.95;95294.25;5039497;28;20232;-65
2022/05/07 10:12:47;;;;;;;5.03;3.38;;;;;;;18.62;39.44;95281.09;5056121;28;20200;-66
2022/05/07 10:15:17;;;;;;;3.85;3.55;;;;;;;18.71;39.72;95284.31;5056195;28;20210;-66
2022/05/07 10:17:46;;;;;;;4.80;3.28;;;;;;;18.83;39.22;95267.13;5056214;28;20240;-66
2022/05/07 10:20:14;;;;;;;4.32;3.53;;;;;;;18.93;39.88;95269.13;5055880;28;20684;-66
2022/05/07 10:22:41;;;;;;;4.63;3.42;;;;;;;18.76;37.67;95273.53;5039747;28;20213;-66
2022/05/07 10:25:10;;;;;;;4.15;3.58;;;;;;;18.78;37.05;95255.59;5056104;28;20221;-65
2022/05/07 10:27:39;;;;;;;3.65;3.10;;;;;;;18.70;35.81;95261.16;5056065;28;20204;-65
2022/05/07 10:30:08;;;;;;;3.40;3.10;;;;;;;18.80;38.27;95255.97;5039005;28;20317;-65
2022/05/07 10:32:57;;;;;;;4.57;3.20;;;;;;;18.98;37.67;95251.13;5055829;28;20678;-66
2022/05/07 10:35:41;;;;;;;3.67;3.30;;;;;;;19.18;36.73;95259.88;5089177;28;20215;-66
2022/05/07 10:38:08;;;;;;;6.35;3.30;;;;;;;19.24;36.22;95261.84;5117840;28;20184;-65
2022/05/07 10:40:35;;;;;;;4.30;3.53;;;;;;;19.12;35.86;95259.47;5117773;28;20210;-65
2022/05/07 10:43:03;;;;;;;3.38;3.08;;;;;;;19.02;36.53;95253.91;5117985;28;20199;-65
2022/05/07 10:45:40;;;;;;;4.50;3.13;;;;;;;18.91;37.88;95256.72;5117235;28;20230;-65
2022/05/07 10:48:18;;;;;;;3.60;3.30;;;;;;;18.95;36.96;95249.13;5118107;28;20252;-66
2022/05/07 10:50:52;;;;;;;3.80;3.50;;;;;;;19.03;35.58;95247.94;5118006;28;20191;-65
2022/05/07 10:53:19;;;;;;;3.80;2.88;;;;;;;18.78;33.99;95247.19;5117782;28;20215;-66
2022/05/07 10:55:46;;;;;;;4.55;4.13;;;;;;;18.66;35.50;95251.16;5116936;28;20199;-65
2022/05/07 10:58:13;;;;;;;3.28;2.97;;;;;;;18.47;36.02;95239.19;5116691;28;20200;-65
2022/05/07 11:00:40;;;;;;;3.40;3.10;;;;;;;18.28;36.81;95245.19;5117681;28;20204;-65
2022/05/07 11:03:10;;;;;;;3.85;3.45;;;;;;;18.32;38.08;95232.03;5116515;28;20203;-65
2022/05/07 11:05:39;;;;;;;3.53;3.22;;;;;;;18.35;36.26;95236.81;5117627;28;20180;-65
2022/05/07 11:08:06;;;;;;;3.40;2.95;;;;;;;18.40;37.09;95232.81;5116759;28;20497;-66
2022/05/07 11:10:33;;;;;;;3.58;2.83;;;;;;;18.37;35.38;95233.63;5117403;28;20211;-65
2022/05/07 11:13:07;;;;;;;3.10;2.80;;;;;;;18.35;34.62;95227.66;5117547;28;20194;-65
2022/05/07 11:15:34;;;;;;;4.43;2.85;;;;;;;18.38;35.69;95224.06;5117255;28;20219;-65
2022/05/07 11:18:01;;;;;;;3.25;2.65;;;;;;;18.40;34.90;95235.63;5116542;28;20205;-65
2022/05/07 11:20:29;;;;;;;3.92;3.58;;;;;;;18.41;35.65;95220.44;5116899;28;20180;-65
2022/05/07 11:23:01;;;;;;;3.30;2.97;;;;;;;18.64;35.09;95220.84;5116613;28;20199;-65
2022/05/07 11:25:28;;;;;;;3.92;3.47;;;;;;;18.85;33.39;95213.66;5116709;28;20199;-65
2022/05/07 11:27:56;;;;;;;3.00;2.80;;;;;;;18.94;31.56;95217.59;5117067;28;20190;-65
2022/05/07 11:30:23;;;;;;;3.25;2.60;;;;;;;19.12;32.43;95211.97;5115878;28;20235;-66
2022/05/07 11:32:50;;;;;;;4.00;3.33;;;;;;;19.36;30.26;95215.06;5116145;28;20196;-66
2022/05/07 11:35:17;;;;;;;3.25;2.97;;;;;;;19.39;31.39;95201.06;5116965;28;20180;-66
2022/05/07 11:37:45;;;;;;;4.30;2.58;;;;;;;19.45;27.45;95202.22;5115727;28;20196;-66
2022/05/07 11:40:15;;;;;;;3.25;2.42;;;;;;;19.42;26.39;95191.84;5116587;28;20293;-66
2022/05/07 11:42:45;;;;;;;2.70;2.50;;;;;;;19.49;25.52;95191.03;5116885;28;20302;-65
2022/05/07 11:45:27;;;;;;;3.10;2.50;;;;;;;19.44;24.07;95183.06;5116212;28;20307;-65
2022/05/07 11:47:55;;;;;;;2.83;2.35;;;;;;;19.60;24.53;95180.56;5116717;28;20195;-65
2022/05/07 11:50:23;;;;;;;2.58;2.38;;;;;;;19.60;24.88;95177.75;5115580;28;20230;-65
2022/05/07 11:52:50;;;;;;;3.75;2.60;;;;;;;19.52;25.45;95187.41;5116318;28;20188;-65
2022/05/07 11:55:24;;;;;;;3.88;2.63;;;;;;;19.42;26.27;95177.06;5116343;28;20180;-65
2022/05/07 11:57:51;;;;;;;4.78;3.38;;;;;;;19.50;27.48;95187.03;5116750;28;20188;-65
2022/05/07 12:00:21;;;;;;;3.08;2.78;;;;;;;19.61;28.78;95164.59;5115740;28;20595;-65
2022/05/07 12:02:55;;;;;;;3.50;2.78;;;;;;;19.46;26.59;95173.06;5116185;28;20187;-65
2022/05/07 12:05:23;;;;;;;3.15;2.83;;;;;;;19.49;27.52;95177.03;5115274;28;20186;-65